createdAt,value
2022-10-11T00:00:53.606Z,6.50
2022-10-11T00:03:21.112Z,6.50
2022-10-11T00:05:48.045Z,6.50
2022-10-11T00:08:14.892Z,6.40
2022-10-11T00:10:41.786Z,6.40
2022-10-11T00:13:08.726Z,6.40
2022-10-11T00:15:35.671Z,6.40
2022-10-11T00:18:05.376Z,6.30
2022-10-11T00:20:32.436Z,6.30
2022-10-11T00:22:59.268Z,6.30
2022-10-11T00:25:26.104Z,6.20
2022-10-11T00:27:52.948Z,6.20
2022-10-11T00:30:19.889Z,6.20
2022-10-11T00:32:46.745Z,6.10
2022-10-11T00:35:13.830Z,6.10
2022-10-11T00:37:40.748Z,6.10
2022-10-11T00:40:09.831Z,6.10
2022-10-11T00:42:36.679Z,6.10
2022-10-11T00:45:42.403Z,6.00
2022-10-11T00:48:18.708Z,6.00
2022-10-11T00:50:45.566Z,5.90
2022-10-11T00:53:12.384Z,5.90
2022-10-11T00:55:49.592Z,5.90
2022-10-11T00:58:16.427Z,5.90
2022-10-11T01:00:43.309Z,5.90
2022-10-11T01:03:10.169Z,5.80
2022-10-11T01:05:37.634Z,5.80
2022-10-11T01:08:04.609Z,5.80
2022-10-11T01:10:31.568Z,5.80
2022-10-11T01:12:58.384Z,5.70
2022-10-11T01:15:36.030Z,5.70
2022-10-11T01:18:13.519Z,5.70
2022-10-11T01:20:55.702Z,5.70
2022-10-11T01:23:28.334Z,5.70
2022-10-11T01:26:21.985Z,5.70
2022-10-11T01:29:02.068Z,5.70
2022-10-11T01:31:41.227Z,5.70
2022-10-11T01:34:11.178Z,5.70
2022-10-11T01:36:45.467Z,5.60
2022-10-11T01:39:21.242Z,5.60
2022-10-11T01:41:50.447Z,5.60
2022-10-11T01:44:17.248Z,5.60
2022-10-11T01:46:44.083Z,5.50
2022-10-11T01:49:11.051Z,5.50
2022-10-11T01:51:46.973Z,5.50
2022-10-11T01:54:39.417Z,5.50
2022-10-11T01:57:59.980Z,5.40
2022-10-11T02:00:30.975Z,5.40
2022-10-11T02:02:57.822Z,5.40
2022-10-11T02:05:49.669Z,5.40
2022-10-11T02:08:38.166Z,5.30
2022-10-11T02:11:22.515Z,5.30
2022-10-11T02:13:56.389Z,5.30
2022-10-11T02:16:26.582Z,5.30
2022-10-11T02:18:53.483Z,5.20
2022-10-11T02:21:21.192Z,5.20
2022-10-11T02:24:01.604Z,5.20
2022-10-11T02:26:29.418Z,5.20
2022-10-11T02:28:57.599Z,5.20
2022-10-11T02:31:24.501Z,5.20
2022-10-11T02:33:59.117Z,5.10
2022-10-11T02:36:42.136Z,5.10
2022-10-11T02:39:14.160Z,5.20
2022-10-11T02:41:43.102Z,5.10
2022-10-11T02:44:13.129Z,5.10
2022-10-11T02:46:40.199Z,5.10
2022-10-11T02:49:07.431Z,5.10
2022-10-11T02:51:34.251Z,5.10
2022-10-11T02:54:01.227Z,5.00
2022-10-11T02:56:28.086Z,5.00
2022-10-11T02:58:54.888Z,5.00
2022-10-11T03:01:21.734Z,4.90
2022-10-11T03:03:48.646Z,4.90
2022-10-11T03:06:15.536Z,4.90
2022-10-11T03:08:42.442Z,4.90
2022-10-11T03:11:09.285Z,4.80
2022-10-11T03:13:36.175Z,4.80
2022-10-11T03:16:07.426Z,4.80
2022-10-11T03:18:34.509Z,4.70
2022-10-11T03:21:01.334Z,4.70
2022-10-11T03:23:28.319Z,4.70
2022-10-11T03:25:55.153Z,4.70
2022-10-11T03:28:22.078Z,4.70
2022-10-11T03:30:49.654Z,4.60
2022-10-11T03:33:17.320Z,4.60
2022-10-11T03:35:45.378Z,4.60
2022-10-11T03:38:13.935Z,4.60
2022-10-11T03:40:41.672Z,4.60
2022-10-11T03:43:08.588Z,4.60
2022-10-11T03:45:35.592Z,4.50
2022-10-11T03:48:02.576Z,4.50
2022-10-11T03:50:29.364Z,4.50
2022-10-11T03:52:56.182Z,4.50
2022-10-11T03:55:23.041Z,4.40
2022-10-11T03:57:49.973Z,4.40
2022-10-11T04:00:17.039Z,4.40
2022-10-11T04:02:43.886Z,4.40
2022-10-11T04:05:12.643Z,4.40
2022-10-11T04:07:39.822Z,4.40
2022-10-11T04:10:07.292Z,4.40
2022-10-11T04:12:34.296Z,4.40
2022-10-11T04:15:01.192Z,4.40
2022-10-11T04:17:28.001Z,4.40
2022-10-11T04:19:54.841Z,4.30
2022-10-11T04:22:21.625Z,4.30
2022-10-11T04:24:48.440Z,4.30
2022-10-11T04:27:15.299Z,4.20
2022-10-11T04:29:42.115Z,4.20
2022-10-11T04:32:08.966Z,4.20
2022-10-11T04:34:35.821Z,4.20
2022-10-11T04:37:02.670Z,4.20
2022-10-11T04:39:29.519Z,4.10
2022-10-11T04:41:56.374Z,4.10
2022-10-11T04:44:23.234Z,4.10
2022-10-11T04:46:50.076Z,4.10
2022-10-11T04:49:16.888Z,4.00
2022-10-11T04:51:43.709Z,4.00
2022-10-11T04:54:10.572Z,4.00
2022-10-11T04:56:37.386Z,4.00
2022-10-11T04:59:04.232Z,4.00
2022-10-11T05:01:31.060Z,4.00
2022-10-11T05:03:57.990Z,3.90
2022-10-11T05:06:24.852Z,3.90
2022-10-11T05:08:51.725Z,3.90
2022-10-11T05:11:18.612Z,3.90
2022-10-11T05:13:45.726Z,3.90
2022-10-11T05:16:12.945Z,3.90
2022-10-11T05:18:40.087Z,3.90
2022-10-11T05:21:16.435Z,3.90
2022-10-11T05:23:43.428Z,3.90
2022-10-11T05:26:10.457Z,3.90
2022-10-11T05:28:37.357Z,3.90
2022-10-11T05:31:04.606Z,3.90
2022-10-11T05:33:31.580Z,3.90
2022-10-11T05:35:58.563Z,3.90
2022-10-11T05:38:25.413Z,3.80
2022-10-11T05:40:52.292Z,3.80
2022-10-11T05:43:19.224Z,3.80
2022-10-11T05:45:46.548Z,3.80
2022-10-11T05:48:13.418Z,3.90
2022-10-11T05:50:40.487Z,3.90
2022-10-11T05:53:07.506Z,3.90
2022-10-11T05:55:40.826Z,3.90
2022-10-11T05:58:08.624Z,3.90
2022-10-11T06:00:38.649Z,3.90
2022-10-11T06:03:06.346Z,3.90
2022-10-11T06:05:34.351Z,3.80
2022-10-11T06:08:01.463Z,3.80
2022-10-11T06:10:28.426Z,3.80
2022-10-11T06:12:55.389Z,3.80
2022-10-11T06:15:22.296Z,3.80
2022-10-11T06:17:49.143Z,3.70
2022-10-11T06:20:16.067Z,3.80
2022-10-11T06:22:42.926Z,3.80
2022-10-11T06:25:09.871Z,3.80
2022-10-11T06:27:36.819Z,3.80
2022-10-11T06:30:04.387Z,3.80
2022-10-11T06:32:31.268Z,3.90
2022-10-11T06:34:58.076Z,3.80
2022-10-11T06:37:24.961Z,3.80
2022-10-11T06:39:51.814Z,3.90
2022-10-11T06:42:18.621Z,3.80
2022-10-11T06:44:45.444Z,3.90
2022-10-11T06:47:12.233Z,3.90
2022-10-11T06:49:39.099Z,4.00
2022-10-11T06:52:05.933Z,4.00
2022-10-11T06:54:32.780Z,4.00
2022-10-11T06:57:00.118Z,4.10
2022-10-11T06:59:27.015Z,4.10
2022-10-11T07:01:54.064Z,4.20
2022-10-11T07:04:20.962Z,4.20
2022-10-11T07:06:47.796Z,4.30
2022-10-11T07:09:14.619Z,4.30
2022-10-11T07:11:41.493Z,4.40
2022-10-11T07:14:09.181Z,4.50
2022-10-11T07:16:36.623Z,4.50
2022-10-11T07:19:04.520Z,4.50
2022-10-11T07:21:32.210Z,4.60
2022-10-11T07:23:59.182Z,4.60
2022-10-11T07:26:27.112Z,4.70
2022-10-11T07:28:54.075Z,4.70
2022-10-11T07:31:22.745Z,4.80
2022-10-11T07:33:49.654Z,4.80
2022-10-11T07:36:16.579Z,4.90
2022-10-11T07:38:44.041Z,4.90
2022-10-11T07:41:11.102Z,5.00
2022-10-11T07:43:38.310Z,5.00
2022-10-11T07:46:05.824Z,5.10
2022-10-11T07:48:36.301Z,5.20
2022-10-11T07:51:17.233Z,5.30
2022-10-11T07:53:45.892Z,5.40
2022-10-11T07:56:14.450Z,5.40
2022-10-11T07:58:41.800Z,5.50
2022-10-11T08:01:09.446Z,5.50
2022-10-11T08:03:36.682Z,5.60
2022-10-11T08:06:05.353Z,5.70
2022-10-11T08:08:32.461Z,5.70
2022-10-11T08:10:59.580Z,5.80
2022-10-11T08:13:26.567Z,5.90
2022-10-11T08:15:53.516Z,6.00
2022-10-11T08:18:20.429Z,6.10
2022-10-11T08:20:47.371Z,6.20
2022-10-11T08:23:14.455Z,6.30
2022-10-11T08:25:42.605Z,6.30
2022-10-11T08:28:10.286Z,6.40
2022-10-11T08:30:37.290Z,6.40
2022-10-11T08:33:08.373Z,6.50
2022-10-11T08:35:36.423Z,6.60
2022-10-11T08:38:03.332Z,6.70
2022-10-11T08:40:35.013Z,6.70
2022-10-11T08:43:07.025Z,6.80
2022-10-11T08:45:44.204Z,6.90
2022-10-11T08:48:34.770Z,7.00
2022-10-11T08:51:01.774Z,7.10
2022-10-11T08:53:41.613Z,7.10
2022-10-11T08:56:09.419Z,7.20
2022-10-11T08:58:45.880Z,7.30
2022-10-11T09:01:24.165Z,7.40
2022-10-11T09:03:51.087Z,7.50
2022-10-11T09:06:23.373Z,7.60
2022-10-11T09:09:22.774Z,7.70
2022-10-11T09:12:11.423Z,7.80
2022-10-11T09:15:11.873Z,7.90
2022-10-11T09:17:41.520Z,8.00
2022-10-11T09:20:38.137Z,8.20
2022-10-11T09:23:16.870Z,8.30
2022-10-11T09:25:55.802Z,8.40
2022-10-11T09:28:42.701Z,8.50
2022-10-11T09:31:10.330Z,8.50
2022-10-11T09:33:39.223Z,8.60
2022-10-11T09:36:36.942Z,8.70
2022-10-11T09:39:45.288Z,8.90
2022-10-11T09:42:12.273Z,9.00
2022-10-11T09:44:57.653Z,9.10
2022-10-11T09:47:25.953Z,9.10
2022-10-11T09:50:04.731Z,9.20
2022-10-11T09:52:31.605Z,9.20
2022-10-11T09:55:00.654Z,9.30
2022-10-11T09:57:29.091Z,9.40
2022-10-11T10:00:06.700Z,9.50
2022-10-11T10:02:47.493Z,9.60
2022-10-11T10:05:37.040Z,9.70
2022-10-11T10:08:05.477Z,9.70
2022-10-11T10:10:38.722Z,9.70
2022-10-11T10:13:07.136Z,9.80
2022-10-11T10:15:37.381Z,9.80
2022-10-11T10:18:06.060Z,9.90
2022-10-11T10:20:34.971Z,9.90
2022-10-11T10:23:10.027Z,10.00
2022-10-11T10:25:43.226Z,10.00
2022-10-11T10:28:37.033Z,10.10
2022-10-11T10:31:03.948Z,10.20
2022-10-11T10:33:33.708Z,10.20
2022-10-11T10:36:15.654Z,10.30
2022-10-11T10:38:51.991Z,10.30
2022-10-11T10:41:19.303Z,10.50
2022-10-11T10:43:54.553Z,10.60
2022-10-11T10:46:37.217Z,10.80
2022-10-11T10:49:53.240Z,10.80
2022-10-11T10:53:13.825Z,10.90
2022-10-11T10:56:19.905Z,11.00
2022-10-11T10:59:05.348Z,11.00
2022-10-11T11:01:33.727Z,11.10
2022-10-11T11:04:19.090Z,11.20
2022-10-11T11:06:56.447Z,11.30
2022-10-11T11:09:57.320Z,11.30
2022-10-11T11:12:36.963Z,11.40
2022-10-11T11:15:32.310Z,11.40
2022-10-11T11:18:29.267Z,11.50
2022-10-11T11:21:28.266Z,11.60
2022-10-11T11:24:22.586Z,11.70
2022-10-11T11:27:03.208Z,11.60
2022-10-11T11:29:49.825Z,11.70
2022-10-11T11:32:47.204Z,11.70
2022-10-11T11:35:19.856Z,11.70
2022-10-11T11:37:46.987Z,11.70
2022-10-11T11:40:17.734Z,11.80
2022-10-11T11:42:49.321Z,11.80
2022-10-11T11:45:41.687Z,11.90
2022-10-11T11:48:17.041Z,11.90
2022-10-11T11:50:46.394Z,12.00
2022-10-11T11:53:15.710Z,12.10
2022-10-11T11:55:56.027Z,12.20
2022-10-11T11:58:30.231Z,12.30
2022-10-11T12:01:31.157Z,12.40
2022-10-11T12:04:02.410Z,12.40
2022-10-11T12:06:33.527Z,12.40
2022-10-11T12:09:21.304Z,12.50
2022-10-11T12:12:04.895Z,12.50
2022-10-11T12:14:34.990Z,12.50
2022-10-11T12:17:16.530Z,12.50
2022-10-11T12:19:59.459Z,12.50
2022-10-11T12:22:29.273Z,12.60
2022-10-11T12:25:01.131Z,12.60
2022-10-11T12:27:42.690Z,12.70
2022-10-11T12:30:55.564Z,12.80
2022-10-11T12:33:46.013Z,13.00
2022-10-11T12:36:28.811Z,13.00
2022-10-11T12:39:20.365Z,13.00
2022-10-11T12:41:50.303Z,13.00
2022-10-11T12:44:26.531Z,13.10
2022-10-11T12:46:57.777Z,13.20
2022-10-11T12:49:31.206Z,13.20
2022-10-11T12:52:03.740Z,13.20
2022-10-11T12:54:34.629Z,13.20
2022-10-11T12:57:12.063Z,13.20
2022-10-11T12:59:42.037Z,13.30
2022-10-11T13:02:21.058Z,13.30
2022-10-11T13:04:47.917Z,13.30
2022-10-11T13:07:15.963Z,13.30
2022-10-11T13:09:48.869Z,13.40
2022-10-11T13:12:20.096Z,13.50
2022-10-11T13:15:09.850Z,13.50
2022-10-11T13:17:38.868Z,13.50
2022-10-11T13:20:22.133Z,13.50
2022-10-11T13:22:50.750Z,13.50
2022-10-11T13:25:28.120Z,13.50
2022-10-11T13:27:56.039Z,13.60
2022-10-11T13:30:28.637Z,13.70
2022-10-11T13:32:55.545Z,13.70
2022-10-11T13:35:31.414Z,13.70
2022-10-11T13:37:58.405Z,13.70
2022-10-11T13:40:25.379Z,13.70
2022-10-11T13:42:52.534Z,13.80
2022-10-11T13:45:24.304Z,13.80
2022-10-11T13:47:53.851Z,13.90
2022-10-11T13:50:30.433Z,13.90
2022-10-11T13:53:12.553Z,13.90
2022-10-11T13:55:42.467Z,13.90
2022-10-11T13:58:18.795Z,13.90
2022-10-11T14:00:58.997Z,14.00
2022-10-11T14:03:39.498Z,13.90
2022-10-11T14:06:06.693Z,13.90
2022-10-11T14:08:47.297Z,13.90
2022-10-11T14:11:14.522Z,14.00
2022-10-11T14:13:49.759Z,14.00
2022-10-11T14:16:16.532Z,14.00
2022-10-11T14:18:47.246Z,14.10
2022-10-11T14:21:23.114Z,14.10
2022-10-11T14:23:53.931Z,14.10
2022-10-11T14:26:21.410Z,14.10
2022-10-11T14:28:59.311Z,14.00
2022-10-11T14:31:26.393Z,14.00
2022-10-11T14:33:53.846Z,14.00
2022-10-11T14:36:22.953Z,14.10
2022-10-11T14:38:50.767Z,14.00
2022-10-11T14:41:18.027Z,14.00
2022-10-11T14:43:44.957Z,14.10
2022-10-11T14:46:22.447Z,14.00
2022-10-11T14:48:55.674Z,14.00
2022-10-11T14:51:27.696Z,14.00
2022-10-11T14:53:54.587Z,14.00
2022-10-11T14:56:21.993Z,14.00
2022-10-11T14:58:48.979Z,13.90
2022-10-11T15:01:16.373Z,13.90
2022-10-11T15:03:43.451Z,13.90
2022-10-11T15:06:22.021Z,13.90
2022-10-11T15:08:48.867Z,13.90
2022-10-11T15:11:17.294Z,13.90
2022-10-11T15:13:44.307Z,13.90
2022-10-11T15:16:13.412Z,13.90
2022-10-11T15:18:40.341Z,13.90
2022-10-11T15:21:07.272Z,13.90
2022-10-11T15:23:34.155Z,13.90
2022-10-11T15:26:01.002Z,13.90
2022-10-11T15:28:29.699Z,13.80
2022-10-11T15:30:56.890Z,13.80
2022-10-11T15:33:24.053Z,13.80
2022-10-11T15:35:51.046Z,13.80
2022-10-11T15:38:19.571Z,13.70
2022-10-11T15:40:46.751Z,13.70
2022-10-11T15:43:13.783Z,13.60
2022-10-11T15:45:40.788Z,13.60
2022-10-11T15:48:07.960Z,13.60
2022-10-11T15:50:38.898Z,13.50
2022-10-11T15:53:08.757Z,13.50
2022-10-11T15:55:38.216Z,13.50
2022-10-11T15:58:05.454Z,13.50
2022-10-11T16:00:32.329Z,13.50
2022-10-11T16:02:59.365Z,13.50
2022-10-11T16:05:26.898Z,13.50
2022-10-11T16:07:54.045Z,13.50
2022-10-11T16:10:21.021Z,13.40
2022-10-11T16:12:47.945Z,13.40
2022-10-11T16:15:14.875Z,13.40
2022-10-11T16:17:41.727Z,13.40
2022-10-11T16:20:08.849Z,13.40
2022-10-11T16:22:35.907Z,13.30
2022-10-11T16:25:03.533Z,13.30
2022-10-11T16:27:30.357Z,13.30
2022-10-11T16:29:57.434Z,13.20
2022-10-11T16:32:24.424Z,13.20
2022-10-11T16:34:51.329Z,13.10
2022-10-11T16:37:18.309Z,13.10
2022-10-11T16:39:45.275Z,13.00
2022-10-11T16:42:12.120Z,13.00
2022-10-11T16:44:39.428Z,12.90
2022-10-11T16:47:06.501Z,12.90
2022-10-11T16:49:33.514Z,12.80
2022-10-11T16:52:02.370Z,12.80
2022-10-11T16:54:30.367Z,12.80
2022-10-11T16:56:57.843Z,12.80
2022-10-11T16:59:24.756Z,12.80
2022-10-11T17:01:51.770Z,12.80
2022-10-11T17:04:18.782Z,12.80
2022-10-11T17:06:45.660Z,12.80
2022-10-11T17:09:12.878Z,12.70
2022-10-11T17:11:40.754Z,12.70
2022-10-11T17:14:07.815Z,12.60
2022-10-11T17:16:35.268Z,12.60
2022-10-11T17:19:02.437Z,12.50
2022-10-11T17:21:29.353Z,12.40
2022-10-11T17:23:56.330Z,12.30
2022-10-11T17:26:26.350Z,12.20
2022-10-11T17:28:54.971Z,12.10
2022-10-11T17:31:22.291Z,12.00
2022-10-11T17:33:49.291Z,11.90
2022-10-11T17:36:24.937Z,11.80
2022-10-11T17:38:51.873Z,11.70
2022-10-11T17:41:19.033Z,11.60
2022-10-11T17:43:45.936Z,11.40
2022-10-11T17:46:13.696Z,11.40
2022-10-11T17:48:40.710Z,11.30
2022-10-11T17:51:12.482Z,11.30
2022-10-11T17:53:39.445Z,11.20
2022-10-11T17:56:07.996Z,11.10
2022-10-11T17:58:34.922Z,11.10
2022-10-11T18:01:10.049Z,11.00
2022-10-11T18:03:37.423Z,11.00
2022-10-11T18:06:05.787Z,10.90
2022-10-11T18:08:40.396Z,10.80
2022-10-11T18:11:12.429Z,10.80
2022-10-11T18:13:42.510Z,10.70
2022-10-11T18:16:10.115Z,10.60
2022-10-11T18:18:37.355Z,10.60
2022-10-11T18:21:04.273Z,10.50
2022-10-11T18:23:31.249Z,10.50
2022-10-11T18:25:58.160Z,10.40
2022-10-11T18:28:25.189Z,10.40
2022-10-11T18:30:53.268Z,10.30
2022-10-11T18:33:20.139Z,10.20
2022-10-11T18:35:46.989Z,10.20
2022-10-11T18:38:13.877Z,10.10
2022-10-11T18:40:46.141Z,10.10
2022-10-11T18:43:13.747Z,10.00
2022-10-11T18:45:40.595Z,9.90
2022-10-11T18:48:08.852Z,9.90
2022-10-11T18:50:35.918Z,9.80
2022-10-11T18:55:29.958Z,9.70
2022-10-11T18:57:56.881Z,9.60
2022-10-11T19:00:40.253Z,9.60
2022-10-11T19:03:07.989Z,9.50
2022-10-11T19:05:34.847Z,9.40
2022-10-11T19:08:01.738Z,9.40
2022-10-11T19:10:28.622Z,9.40
2022-10-11T19:12:55.520Z,9.40
2022-10-11T19:15:26.449Z,9.30
2022-10-11T19:17:55.397Z,9.30
2022-10-11T19:20:22.237Z,9.30
2022-10-11T19:22:49.098Z,9.20
2022-10-11T19:25:15.984Z,9.20
2022-10-11T19:27:42.883Z,9.10
2022-10-11T19:30:10.177Z,9.10
2022-10-11T19:32:37.057Z,9.10
2022-10-11T19:35:04.100Z,9.10
2022-10-11T19:37:31.187Z,9.00
2022-10-11T19:39:58.316Z,9.00
2022-10-11T19:42:25.130Z,9.00
2022-10-11T19:44:52.343Z,9.00
2022-10-11T19:47:19.213Z,9.00
2022-10-11T19:49:46.054Z,8.90
2022-10-11T19:52:13.785Z,8.90
2022-10-11T19:54:40.583Z,8.80
2022-10-11T19:57:09.449Z,8.70
2022-10-11T19:59:36.440Z,8.60
2022-10-11T20:02:03.311Z,8.60
2022-10-11T20:07:17.801Z,8.50
2022-10-11T20:09:44.599Z,8.40
2022-10-11T20:12:11.460Z,8.40
2022-10-11T20:14:38.276Z,8.40
2022-10-11T20:17:05.113Z,8.30
2022-10-11T20:19:32.067Z,8.30
2022-10-11T20:21:59.720Z,8.30
2022-10-11T20:24:29.036Z,8.20
2022-10-11T20:26:55.970Z,8.20
2022-10-11T20:29:27.797Z,8.20
2022-10-11T20:31:56.329Z,8.10
2022-10-11T20:34:23.486Z,8.10
2022-10-11T20:36:50.390Z,8.10
2022-10-11T20:39:17.984Z,8.00
2022-10-11T20:41:45.066Z,8.00
2022-10-11T20:44:13.257Z,7.90
2022-10-11T20:46:40.269Z,7.90
2022-10-11T20:49:10.896Z,7.90
2022-10-11T20:51:38.888Z,7.80
2022-10-11T20:54:05.914Z,7.80
2022-10-11T20:56:33.750Z,7.80
2022-10-11T20:59:00.725Z,7.70
2022-10-11T21:01:32.368Z,7.70
2022-10-11T21:03:59.930Z,7.60
2022-10-11T21:06:27.241Z,7.60
2022-10-11T21:08:57.268Z,7.50
2022-10-11T21:11:31.956Z,7.50
2022-10-11T21:14:00.015Z,7.50
2022-10-11T21:16:27.435Z,7.50
2022-10-11T21:18:55.174Z,7.40
2022-10-11T21:21:23.502Z,7.40
2022-10-11T21:23:53.447Z,7.40
2022-10-11T21:26:20.438Z,7.30
2022-10-11T21:28:47.308Z,7.30
2022-10-11T21:31:15.753Z,7.30
2022-10-11T21:33:42.774Z,7.30
2022-10-11T21:36:27.976Z,7.20
2022-10-11T21:38:54.873Z,7.20
2022-10-11T21:41:23.255Z,7.20
2022-10-11T21:43:50.223Z,7.10
2022-10-11T21:46:36.969Z,7.10
2022-10-11T21:49:12.362Z,7.10
2022-10-11T21:51:39.201Z,7.10
2022-10-11T21:54:06.344Z,7.10
2022-10-11T21:56:33.171Z,7.10
2022-10-11T21:59:00.017Z,7.10
2022-10-11T22:01:27.071Z,7.00
2022-10-11T22:03:54.241Z,7.00
2022-10-11T22:06:21.461Z,7.00
2022-10-11T22:08:50.053Z,6.90
2022-10-11T22:11:17.047Z,6.90
2022-10-11T22:13:43.897Z,6.80
2022-10-11T22:16:11.631Z,6.80
2022-10-11T22:18:38.463Z,6.80
2022-10-11T22:21:16.424Z,6.80
2022-10-11T22:23:44.496Z,6.80
2022-10-11T22:26:15.781Z,6.80
2022-10-11T22:28:42.647Z,6.80
2022-10-11T22:31:09.851Z,6.70
2022-10-11T22:33:36.871Z,6.80
2022-10-11T22:36:05.023Z,6.80
2022-10-11T22:38:31.855Z,6.70
2022-10-11T22:40:59.142Z,6.70
2022-10-11T22:43:27.872Z,6.70
2022-10-11T22:45:54.706Z,6.70
2022-10-11T22:48:21.537Z,6.60
2022-10-11T22:50:48.381Z,6.60
2022-10-11T22:53:15.340Z,6.60
2022-10-11T22:55:42.242Z,6.60
2022-10-11T22:58:09.124Z,6.60
2022-10-11T23:00:36.103Z,6.50
2022-10-11T23:03:02.935Z,6.50
2022-10-11T23:05:29.772Z,6.50
2022-10-11T23:07:56.656Z,6.50
2022-10-11T23:10:23.502Z,6.50
2022-10-11T23:12:50.373Z,6.40
2022-10-11T23:15:17.463Z,6.40
2022-10-11T23:17:44.309Z,6.40
2022-10-11T23:20:11.722Z,6.40
2022-10-11T23:22:38.621Z,6.40
2022-10-11T23:25:05.928Z,6.30
2022-10-11T23:27:32.811Z,6.30
2022-10-11T23:29:59.661Z,6.30
2022-10-11T23:32:26.481Z,6.40
2022-10-11T23:34:53.415Z,6.30
2022-10-11T23:37:20.334Z,6.30
2022-10-11T23:39:47.218Z,6.30
2022-10-11T23:42:14.068Z,6.30
2022-10-11T23:44:40.878Z,6.30
2022-10-11T23:47:07.743Z,6.30
2022-10-11T23:49:34.583Z,6.30
2022-10-11T23:52:01.467Z,6.30
2022-10-11T23:54:28.361Z,6.30
2022-10-11T23:56:55.251Z,6.30
2022-10-11T23:59:22.062Z,6.20
